sensor_id;sensor_type;location;lat;lon;timestamp;P1;durP1;ratioP1;P2;durP2;ratioP2
990;SDS011;484;48.128;11.602;2024-03-29T00:00:42;2.00;;;0.87;;
990;SDS011;484;48.128;11.602;2024-03-29T00:03:28;0.80;;;0.70;;
990;SDS011;484;48.128;11.602;2024-03-29T00:06:13;0.60;;;0.60;;
990;SDS011;484;48.128;11.602;2024-03-29T00:08:58;0.90;;;0.63;;
990;SDS011;484;48.128;11.602;2024-03-29T00:11:43;0.60;;;0.60;;
990;SDS011;484;48.128;11.602;2024-03-29T00:14:27;0.70;;;0.70;;
990;SDS011;484;48.128;11.602;2024-03-29T00:17:12;0.70;;;0.60;;
990;SDS011;484;48.128;11.602;2024-03-29T00:19:58;0.90;;;0.90;;
990;SDS011;484;48.128;11.602;2024-03-29T00:22:43;0.70;;;0.67;;
990;SDS011;484;48.128;11.602;2024-03-29T00:25:27;0.60;;;0.60;;
990;SDS011;484;48.128;11.602;2024-03-29T00:28:12;0.93;;;0.70;;
990;SDS011;484;48.128;11.602;2024-03-29T00:30:56;1.10;;;1.00;;
990;SDS011;484;48.128;11.602;2024-03-29T00:33:41;0.60;;;0.60;;
990;SDS011;484;48.128;11.602;2024-03-29T00:36:27;0.60;;;0.60;;
990;SDS011;484;48.128;11.602;2024-03-29T00:39:12;0.70;;;0.60;;
990;SDS011;484;48.128;11.602;2024-03-29T00:41:57;1.43;;;0.70;;
990;SDS011;484;48.128;11.602;2024-03-29T00:44:41;0.60;;;0.50;;
990;SDS011;484;48.128;11.602;2024-03-29T00:47:26;0.57;;;0.57;;
990;SDS011;484;48.128;11.602;2024-03-29T00:50:11;0.50;;;0.50;;
990;SDS011;484;48.128;11.602;2024-03-29T00:52:57;0.60;;;0.60;;
990;SDS011;484;48.128;11.602;2024-03-29T00:55:42;0.53;;;0.53;;
990;SDS011;484;48.128;11.602;2024-03-29T00:58:26;0.70;;;0.60;;
990;SDS011;484;48.128;11.602;2024-03-29T01:01:11;0.70;;;0.60;;
990;SDS011;484;48.128;11.602;2024-03-29T01:03:55;0.93;;;0.70;;
990;SDS011;484;48.128;11.602;2024-03-29T01:06:40;1.73;;;0.57;;
990;SDS011;484;48.128;11.602;2024-03-29T01:09:26;0.60;;;0.50;;
990;SDS011;484;48.128;11.602;2024-03-29T01:12:11;0.57;;;0.57;;
990;SDS011;484;48.128;11.602;2024-03-29T01:14:55;0.83;;;0.70;;
990;SDS011;484;48.128;11.602;2024-03-29T01:17:40;0.70;;;0.70;;
990;SDS011;484;48.128;11.602;2024-03-29T01:20:24;0.70;;;0.70;;
990;SDS011;484;48.128;11.602;2024-03-29T01:23:09;0.80;;;0.60;;
990;SDS011;484;48.128;11.602;2024-03-29T01:25:55;0.83;;;0.83;;
990;SDS011;484;48.128;11.602;2024-03-29T01:28:40;0.83;;;0.80;;
990;SDS011;484;48.128;11.602;2024-03-29T01:31:24;0.70;;;0.70;;
990;SDS011;484;48.128;11.602;2024-03-29T01:34:09;0.60;;;0.60;;
990;SDS011;484;48.128;11.602;2024-03-29T01:36:53;0.60;;;0.60;;
990;SDS011;484;48.128;11.602;2024-03-29T01:39:38;2.70;;;0.60;;
990;SDS011;484;48.128;11.602;2024-03-29T01:42:24;0.50;;;0.50;;
990;SDS011;484;48.128;11.602;2024-03-29T01:45:09;0.70;;;0.70;;
990;SDS011;484;48.128;11.602;2024-03-29T01:47:54;0.60;;;0.60;;
990;SDS011;484;48.128;11.602;2024-03-29T01:50:40;1.00;;;1.00;;
990;SDS011;484;48.128;11.602;2024-03-29T01:53:26;0.53;;;0.53;;
990;SDS011;484;48.128;11.602;2024-03-29T01:56:12;0.80;;;0.80;;
990;SDS011;484;48.128;11.602;2024-03-29T01:59:00;0.60;;;0.60;;
990;SDS011;484;48.128;11.602;2024-03-29T02:01:48;0.70;;;0.67;;
990;SDS011;484;48.128;11.602;2024-03-29T02:04:34;0.80;;;0.67;;
990;SDS011;484;48.128;11.602;2024-03-29T02:07:20;0.60;;;0.60;;
990;SDS011;484;48.128;11.602;2024-03-29T02:10:06;0.77;;;0.77;;
990;SDS011;484;48.128;11.602;2024-03-29T02:12:52;0.70;;;0.60;;
990;SDS011;484;48.128;11.602;2024-03-29T02:15:40;0.70;;;0.70;;
990;SDS011;484;48.128;11.602;2024-03-29T02:18:25;0.77;;;0.77;;
990;SDS011;484;48.128;11.602;2024-03-29T02:21:11;0.70;;;0.70;;
990;SDS011;484;48.128;11.602;2024-03-29T02:24:00;1.03;;;0.80;;
990;SDS011;484;48.128;11.602;2024-03-29T02:26:49;0.87;;;0.70;;
990;SDS011;484;48.128;11.602;2024-03-29T02:29:35;1.07;;;0.87;;
990;SDS011;484;48.128;11.602;2024-03-29T02:32:20;0.60;;;0.60;;
990;SDS011;484;48.128;11.602;2024-03-29T02:35:06;0.70;;;0.60;;
990;SDS011;484;48.128;11.602;2024-03-29T02:37:52;0.60;;;0.50;;
990;SDS011;484;48.128;11.602;2024-03-29T02:40:39;0.77;;;0.77;;
990;SDS011;484;48.128;11.602;2024-03-29T02:43:25;0.80;;;0.70;;
990;SDS011;484;48.128;11.602;2024-03-29T02:46:10;0.87;;;0.70;;
990;SDS011;484;48.128;11.602;2024-03-29T02:48:56;0.73;;;0.60;;
990;SDS011;484;48.128;11.602;2024-03-29T02:51:42;1.53;;;0.77;;
990;SDS011;484;48.128;11.602;2024-03-29T02:54:27;1.00;;;0.90;;
990;SDS011;484;48.128;11.602;2024-03-29T02:57:13;0.70;;;0.70;;
990;SDS011;484;48.128;11.602;2024-03-29T02:59:58;0.63;;;0.63;;
990;SDS011;484;48.128;11.602;2024-03-29T03:02:44;0.90;;;0.80;;
990;SDS011;484;48.128;11.602;2024-03-29T03:05:29;0.80;;;0.80;;
990;SDS011;484;48.128;11.602;2024-03-29T03:08:15;1.57;;;0.93;;
990;SDS011;484;48.128;11.602;2024-03-29T03:11:17;1.90;;;1.37;;
990;SDS011;484;48.128;11.602;2024-03-29T03:14:05;0.80;;;0.80;;
990;SDS011;484;48.128;11.602;2024-03-29T03:16:51;0.60;;;0.60;;
990;SDS011;484;48.128;11.602;2024-03-29T03:19:36;0.70;;;0.70;;
990;SDS011;484;48.128;11.602;2024-03-29T03:22:21;1.13;;;1.03;;
990;SDS011;484;48.128;11.602;2024-03-29T03:25:07;1.17;;;1.07;;
990;SDS011;484;48.128;11.602;2024-03-29T03:27:51;0.70;;;0.70;;
990;SDS011;484;48.128;11.602;2024-03-29T03:30:41;0.70;;;0.70;;
990;SDS011;484;48.128;11.602;2024-03-29T03:33:26;0.73;;;0.73;;
990;SDS011;484;48.128;11.602;2024-03-29T03:36:12;0.90;;;0.80;;
990;SDS011;484;48.128;11.602;2024-03-29T03:38:56;0.80;;;0.80;;
990;SDS011;484;48.128;11.602;2024-03-29T03:41:41;1.00;;;0.70;;
990;SDS011;484;48.128;11.602;2024-03-29T03:44:26;1.33;;;0.80;;
990;SDS011;484;48.128;11.602;2024-03-29T03:47:13;0.70;;;0.70;;
990;SDS011;484;48.128;11.602;2024-03-29T03:49:58;2.23;;;0.70;;
990;SDS011;484;48.128;11.602;2024-03-29T03:52:44;0.70;;;0.70;;
990;SDS011;484;48.128;11.602;2024-03-29T03:55:28;1.63;;;0.70;;
990;SDS011;484;48.128;11.602;2024-03-29T03:58:14;1.90;;;0.70;;
990;SDS011;484;48.128;11.602;2024-03-29T04:01:03;0.60;;;0.60;;
990;SDS011;484;48.128;11.602;2024-03-29T04:03:49;0.90;;;0.80;;
990;SDS011;484;48.128;11.602;2024-03-29T04:06:35;0.80;;;0.80;;
990;SDS011;484;48.128;11.602;2024-03-29T04:09:19;0.70;;;0.70;;
990;SDS011;484;48.128;11.602;2024-03-29T04:12:05;0.80;;;0.80;;
990;SDS011;484;48.128;11.602;2024-03-29T04:14:49;0.70;;;0.70;;
990;SDS011;484;48.128;11.602;2024-03-29T04:17:35;0.60;;;0.60;;
990;SDS011;484;48.128;11.602;2024-03-29T04:20:21;0.80;;;0.80;;
990;SDS011;484;48.128;11.602;2024-03-29T04:23:06;0.60;;;0.60;;
990;SDS011;484;48.128;11.602;2024-03-29T04:25:51;0.70;;;0.70;;
990;SDS011;484;48.128;11.602;2024-03-29T04:28:37;0.90;;;0.90;;
990;SDS011;484;48.128;11.602;2024-03-29T04:31:22;2.83;;;1.00;;
990;SDS011;484;48.128;11.602;2024-03-29T04:34:07;1.00;;;0.70;;
990;SDS011;484;48.128;11.602;2024-03-29T04:36:53;1.77;;;0.90;;
990;SDS011;484;48.128;11.602;2024-03-29T04:39:39;0.70;;;0.70;;
990;SDS011;484;48.128;11.602;2024-03-29T04:42:26;1.00;;;0.80;;
990;SDS011;484;48.128;11.602;2024-03-29T04:45:11;0.80;;;0.80;;
990;SDS011;484;48.128;11.602;2024-03-29T04:47:57;1.90;;;1.00;;
990;SDS011;484;48.128;11.602;2024-03-29T04:50:42;0.90;;;0.90;;
990;SDS011;484;48.128;11.602;2024-03-29T04:53:29;0.93;;;0.90;;
990;SDS011;484;48.128;11.602;2024-03-29T04:56:15;0.60;;;0.60;;
990;SDS011;484;48.128;11.602;2024-03-29T04:59:00;0.80;;;0.77;;
990;SDS011;484;48.128;11.602;2024-03-29T05:01:46;0.70;;;0.70;;
990;SDS011;484;48.128;11.602;2024-03-29T05:04:34;0.80;;;0.80;;
990;SDS011;484;48.128;11.602;2024-03-29T05:07:20;0.80;;;0.80;;
990;SDS011;484;48.128;11.602;2024-03-29T05:10:07;0.70;;;0.70;;
990;SDS011;484;48.128;11.602;2024-03-29T05:12:53;1.00;;;0.90;;
990;SDS011;484;48.128;11.602;2024-03-29T05:15:38;1.47;;;1.10;;
990;SDS011;484;48.128;11.602;2024-03-29T05:18:24;1.17;;;1.07;;
990;SDS011;484;48.128;11.602;2024-03-29T05:21:09;0.70;;;0.70;;
990;SDS011;484;48.128;11.602;2024-03-29T05:23:54;1.80;;;1.10;;
990;SDS011;484;48.128;11.602;2024-03-29T05:26:41;1.30;;;1.20;;
990;SDS011;484;48.128;11.602;2024-03-29T05:29:27;0.80;;;0.80;;
990;SDS011;484;48.128;11.602;2024-03-29T05:32:12;0.87;;;0.80;;
990;SDS011;484;48.128;11.602;2024-03-29T05:34:58;1.20;;;1.20;;
990;SDS011;484;48.128;11.602;2024-03-29T05:37:43;1.07;;;0.97;;
990;SDS011;484;48.128;11.602;2024-03-29T05:40:34;1.33;;;1.23;;
990;SDS011;484;48.128;11.602;2024-03-29T05:43:23;1.30;;;1.20;;
990;SDS011;484;48.128;11.602;2024-03-29T05:46:08;1.03;;;1.03;;
990;SDS011;484;48.128;11.602;2024-03-29T05:48:54;1.20;;;1.10;;
990;SDS011;484;48.128;11.602;2024-03-29T05:51:39;1.40;;;1.27;;
990;SDS011;484;48.128;11.602;2024-03-29T05:54:25;1.40;;;1.30;;
990;SDS011;484;48.128;11.602;2024-03-29T05:57:11;1.50;;;1.20;;
990;SDS011;484;48.128;11.602;2024-03-29T05:59:58;0.93;;;0.90;;
990;SDS011;484;48.128;11.602;2024-03-29T06:02:44;1.10;;;1.03;;
990;SDS011;484;48.128;11.602;2024-03-29T06:05:31;1.50;;;1.40;;
990;SDS011;484;48.128;11.602;2024-03-29T06:08:17;1.03;;;1.00;;
990;SDS011;484;48.128;11.602;2024-03-29T06:11:04;1.37;;;1.17;;
990;SDS011;484;48.128;11.602;2024-03-29T06:13:50;1.10;;;1.00;;
990;SDS011;484;48.128;11.602;2024-03-29T06:16:54;1.63;;;1.53;;
990;SDS011;484;48.128;11.602;2024-03-29T06:20:12;1.30;;;1.20;;
990;SDS011;484;48.128;11.602;2024-03-29T06:22:57;1.40;;;1.30;;
990;SDS011;484;48.128;11.602;2024-03-29T06:25:44;1.13;;;1.07;;
990;SDS011;484;48.128;11.602;2024-03-29T06:28:29;1.03;;;1.00;;
990;SDS011;484;48.128;11.602;2024-03-29T06:31:15;1.13;;;1.10;;
990;SDS011;484;48.128;11.602;2024-03-29T06:34:02;1.10;;;1.10;;
990;SDS011;484;48.128;11.602;2024-03-29T06:36:47;1.83;;;1.73;;
990;SDS011;484;48.128;11.602;2024-03-29T06:39:33;1.30;;;1.10;;
990;SDS011;484;48.128;11.602;2024-03-29T06:42:19;1.73;;;1.20;;
990;SDS011;484;48.128;11.602;2024-03-29T06:45:05;1.50;;;1.10;;
990;SDS011;484;48.128;11.602;2024-03-29T06:47:50;2.07;;;1.37;;
990;SDS011;484;48.128;11.602;2024-03-29T06:50:38;1.63;;;1.00;;
990;SDS011;484;48.128;11.602;2024-03-29T06:53:24;2.70;;;1.53;;
990;SDS011;484;48.128;11.602;2024-03-29T06:56:10;0.90;;;0.90;;
990;SDS011;484;48.128;11.602;2024-03-29T06:58:55;1.20;;;1.10;;
990;SDS011;484;48.128;11.602;2024-03-29T07:01:41;1.07;;;1.00;;
990;SDS011;484;48.128;11.602;2024-03-29T07:04:26;1.67;;;1.57;;
990;SDS011;484;48.128;11.602;2024-03-29T07:07:14;0.93;;;0.90;;
990;SDS011;484;48.128;11.602;2024-03-29T07:10:00;1.30;;;0.93;;
990;SDS011;484;48.128;11.602;2024-03-29T07:12:46;1.20;;;0.77;;
990;SDS011;484;48.128;11.602;2024-03-29T07:15:31;0.80;;;0.77;;
990;SDS011;484;48.128;11.602;2024-03-29T07:18:17;2.40;;;0.93;;
990;SDS011;484;48.128;11.602;2024-03-29T07:21:03;0.77;;;0.77;;
990;SDS011;484;48.128;11.602;2024-03-29T07:23:50;0.90;;;0.80;;
990;SDS011;484;48.128;11.602;2024-03-29T07:26:35;0.80;;;0.80;;
990;SDS011;484;48.128;11.602;2024-03-29T07:29:20;1.23;;;0.90;;
990;SDS011;484;48.128;11.602;2024-03-29T07:32:06;1.20;;;0.97;;
990;SDS011;484;48.128;11.602;2024-03-29T07:34:51;0.80;;;0.80;;
990;SDS011;484;48.128;11.602;2024-03-29T07:37:38;1.20;;;0.90;;
990;SDS011;484;48.128;11.602;2024-03-29T07:40:25;0.90;;;0.90;;
990;SDS011;484;48.128;11.602;2024-03-29T07:43:11;0.80;;;0.77;;
990;SDS011;484;48.128;11.602;2024-03-29T07:45:58;2.83;;;0.83;;
990;SDS011;484;48.128;11.602;2024-03-29T07:48:43;1.10;;;1.00;;
990;SDS011;484;48.128;11.602;2024-03-29T07:51:29;0.70;;;0.70;;
990;SDS011;484;48.128;11.602;2024-03-29T07:54:14;2.57;;;0.93;;
990;SDS011;484;48.128;11.602;2024-03-29T07:57:01;2.00;;;1.10;;
990;SDS011;484;48.128;11.602;2024-03-29T07:59:50;1.03;;;0.80;;
990;SDS011;484;48.128;11.602;2024-03-29T08:02:35;0.80;;;0.70;;
990;SDS011;484;48.128;11.602;2024-03-29T08:05:22;0.97;;;0.87;;
990;SDS011;484;48.128;11.602;2024-03-29T08:08:11;0.80;;;0.80;;
990;SDS011;484;48.128;11.602;2024-03-29T08:10:57;0.80;;;0.80;;
990;SDS011;484;48.128;11.602;2024-03-29T08:13:44;0.70;;;0.70;;
990;SDS011;484;48.128;11.602;2024-03-29T08:16:30;0.60;;;0.57;;
990;SDS011;484;48.128;11.602;2024-03-29T08:19:15;1.10;;;0.70;;
990;SDS011;484;48.128;11.602;2024-03-29T08:22:00;1.03;;;0.93;;
990;SDS011;484;48.128;11.602;2024-03-29T08:24:46;0.90;;;0.90;;
990;SDS011;484;48.128;11.602;2024-03-29T08:27:32;2.47;;;1.33;;
990;SDS011;484;48.128;11.602;2024-03-29T08:30:19;0.70;;;0.70;;
990;SDS011;484;48.128;11.602;2024-03-29T08:33:05;0.87;;;0.80;;
990;SDS011;484;48.128;11.602;2024-03-29T08:35:50;1.37;;;1.27;;
990;SDS011;484;48.128;11.602;2024-03-29T08:38:35;1.03;;;0.90;;
990;SDS011;484;48.128;11.602;2024-03-29T08:41:24;1.97;;;0.90;;
990;SDS011;484;48.128;11.602;2024-03-29T08:44:11;0.70;;;0.70;;
990;SDS011;484;48.128;11.602;2024-03-29T08:46:58;0.60;;;0.60;;
990;SDS011;484;48.128;11.602;2024-03-29T08:49:45;0.70;;;0.70;;
990;SDS011;484;48.128;11.602;2024-03-29T08:52:31;0.70;;;0.67;;
990;SDS011;484;48.128;11.602;2024-03-29T08:55:16;1.00;;;0.90;;
990;SDS011;484;48.128;11.602;2024-03-29T08:58:02;0.90;;;0.70;;
990;SDS011;484;48.128;11.602;2024-03-29T09:00:52;1.40;;;1.30;;
990;SDS011;484;48.128;11.602;2024-03-29T09:03:39;1.20;;;1.10;;
990;SDS011;484;48.128;11.602;2024-03-29T09:06:25;2.20;;;0.87;;
990;SDS011;484;48.128;11.602;2024-03-29T09:09:11;0.70;;;0.70;;
990;SDS011;484;48.128;11.602;2024-03-29T09:11:57;0.93;;;0.80;;
990;SDS011;484;48.128;11.602;2024-03-29T09:14:43;0.90;;;0.80;;
990;SDS011;484;48.128;11.602;2024-03-29T09:17:29;1.10;;;1.00;;
990;SDS011;484;48.128;11.602;2024-03-29T09:20:16;1.33;;;0.90;;
990;SDS011;484;48.128;11.602;2024-03-29T09:23:02;0.70;;;0.70;;
990;SDS011;484;48.128;11.602;2024-03-29T09:25:48;0.77;;;0.77;;
990;SDS011;484;48.128;11.602;2024-03-29T09:28:33;0.83;;;0.80;;
990;SDS011;484;48.128;11.602;2024-03-29T09:31:20;0.80;;;0.63;;
990;SDS011;484;48.128;11.602;2024-03-29T09:34:06;1.83;;;0.70;;
990;SDS011;484;48.128;11.602;2024-03-29T09:36:54;1.07;;;0.97;;
990;SDS011;484;48.128;11.602;2024-03-29T09:39:41;0.70;;;0.70;;
990;SDS011;484;48.128;11.602;2024-03-29T09:42:26;0.70;;;0.70;;
990;SDS011;484;48.128;11.602;2024-03-29T09:45:14;0.70;;;0.70;;
990;SDS011;484;48.128;11.602;2024-03-29T09:48:01;1.00;;;1.00;;
990;SDS011;484;48.128;11.602;2024-03-29T09:50:48;1.27;;;0.90;;
990;SDS011;484;48.128;11.602;2024-03-29T09:53:36;1.57;;;1.10;;
990;SDS011;484;48.128;11.602;2024-03-29T09:56:22;0.77;;;0.77;;
990;SDS011;484;48.128;11.602;2024-03-29T09:59:09;1.47;;;1.37;;
990;SDS011;484;48.128;11.602;2024-03-29T10:01:55;1.90;;;1.20;;
990;SDS011;484;48.128;11.602;2024-03-29T10:04:41;1.17;;;1.07;;
990;SDS011;484;48.128;11.602;2024-03-29T10:07:27;0.80;;;0.80;;
990;SDS011;484;48.128;11.602;2024-03-29T10:10:15;1.10;;;1.00;;
990;SDS011;484;48.128;11.602;2024-03-29T10:13:01;1.13;;;1.03;;
990;SDS011;484;48.128;11.602;2024-03-29T10:15:48;0.70;;;0.70;;
990;SDS011;484;48.128;11.602;2024-03-29T10:18:35;1.13;;;0.70;;
990;SDS011;484;48.128;11.602;2024-03-29T10:21:24;1.13;;;1.00;;
990;SDS011;484;48.128;11.602;2024-03-29T10:24:11;1.27;;;1.27;;
990;SDS011;484;48.128;11.602;2024-03-29T10:26:59;1.00;;;0.90;;
990;SDS011;484;48.128;11.602;2024-03-29T10:29:45;0.80;;;0.70;;
990;SDS011;484;48.128;11.602;2024-03-29T10:32:30;3.23;;;1.03;;
990;SDS011;484;48.128;11.602;2024-03-29T10:35:16;0.80;;;0.80;;
990;SDS011;484;48.128;11.602;2024-03-29T10:38:04;0.70;;;0.70;;
990;SDS011;484;48.128;11.602;2024-03-29T10:40:50;2.33;;;1.33;;
990;SDS011;484;48.128;11.602;2024-03-29T10:43:38;2.63;;;0.90;;
990;SDS011;484;48.128;11.602;2024-03-29T10:46:24;1.00;;;0.90;;
990;SDS011;484;48.128;11.602;2024-03-29T10:49:10;0.60;;;0.60;;
990;SDS011;484;48.128;11.602;2024-03-29T10:51:58;1.13;;;1.03;;
990;SDS011;484;48.128;11.602;2024-03-29T10:54:46;1.10;;;0.90;;
990;SDS011;484;48.128;11.602;2024-03-29T10:57:32;2.23;;;0.70;;
990;SDS011;484;48.128;11.602;2024-03-29T11:00:22;0.73;;;0.73;;
990;SDS011;484;48.128;11.602;2024-03-29T11:03:09;0.80;;;0.80;;
990;SDS011;484;48.128;11.602;2024-03-29T11:06:02;0.70;;;0.70;;
990;SDS011;484;48.128;11.602;2024-03-29T11:08:49;0.73;;;0.70;;
990;SDS011;484;48.128;11.602;2024-03-29T11:11:37;0.80;;;0.80;;
990;SDS011;484;48.128;11.602;2024-03-29T11:14:26;1.27;;;0.97;;
990;SDS011;484;48.128;11.602;2024-03-29T11:17:16;1.37;;;0.70;;
990;SDS011;484;48.128;11.602;2024-03-29T11:20:02;1.53;;;0.80;;
990;SDS011;484;48.128;11.602;2024-03-29T11:22:49;0.67;;;0.60;;
990;SDS011;484;48.128;11.602;2024-03-29T11:25:38;0.70;;;0.70;;
990;SDS011;484;48.128;11.602;2024-03-29T11:28:26;0.80;;;0.80;;
990;SDS011;484;48.128;11.602;2024-03-29T11:31:13;0.73;;;0.73;;
990;SDS011;484;48.128;11.602;2024-03-29T11:34:02;0.80;;;0.80;;
990;SDS011;484;48.128;11.602;2024-03-29T11:36:47;2.10;;;0.80;;
990;SDS011;484;48.128;11.602;2024-03-29T11:39:33;2.20;;;0.87;;
990;SDS011;484;48.128;11.602;2024-03-29T11:42:19;0.90;;;0.80;;
990;SDS011;484;48.128;11.602;2024-03-29T11:45:04;0.70;;;0.70;;
990;SDS011;484;48.128;11.602;2024-03-29T11:47:54;0.60;;;0.60;;
990;SDS011;484;48.128;11.602;2024-03-29T11:50:42;1.70;;;0.73;;
990;SDS011;484;48.128;11.602;2024-03-29T11:53:28;0.90;;;0.90;;
990;SDS011;484;48.128;11.602;2024-03-29T11:56:14;0.77;;;0.77;;
990;SDS011;484;48.128;11.602;2024-03-29T11:59:00;1.03;;;0.77;;
990;SDS011;484;48.128;11.602;2024-03-29T12:01:46;0.87;;;0.87;;
990;SDS011;484;48.128;11.602;2024-03-29T12:04:32;0.73;;;0.70;;
990;SDS011;484;48.128;11.602;2024-03-29T12:07:20;0.80;;;0.80;;
990;SDS011;484;48.128;11.602;2024-03-29T12:10:08;0.63;;;0.63;;
990;SDS011;484;48.128;11.602;2024-03-29T12:12:55;2.60;;;0.80;;
990;SDS011;484;48.128;11.602;2024-03-29T12:15:41;0.97;;;0.93;;
990;SDS011;484;48.128;11.602;2024-03-29T12:18:27;3.17;;;1.70;;
990;SDS011;484;48.128;11.602;2024-03-29T12:21:15;0.87;;;0.60;;
990;SDS011;484;48.128;11.602;2024-03-29T12:24:03;2.40;;;2.20;;
990;SDS011;484;48.128;11.602;2024-03-29T12:26:49;1.37;;;1.00;;
990;SDS011;484;48.128;11.602;2024-03-29T12:29:35;1.00;;;0.87;;
990;SDS011;484;48.128;11.602;2024-03-29T12:32:21;1.73;;;0.90;;
990;SDS011;484;48.128;11.602;2024-03-29T12:35:09;0.80;;;0.73;;
990;SDS011;484;48.128;11.602;2024-03-29T12:37:57;0.80;;;0.80;;
990;SDS011;484;48.128;11.602;2024-03-29T12:40:45;0.90;;;0.80;;
990;SDS011;484;48.128;11.602;2024-03-29T12:43:32;0.87;;;0.87;;
990;SDS011;484;48.128;11.602;2024-03-29T12:46:17;0.90;;;0.90;;
990;SDS011;484;48.128;11.602;2024-03-29T12:49:03;0.70;;;0.70;;
990;SDS011;484;48.128;11.602;2024-03-29T12:51:49;0.70;;;0.70;;
990;SDS011;484;48.128;11.602;2024-03-29T12:54:35;0.80;;;0.80;;
990;SDS011;484;48.128;11.602;2024-03-29T12:57:23;0.70;;;0.70;;
990;SDS011;484;48.128;11.602;2024-03-29T13:00:09;0.80;;;0.80;;
990;SDS011;484;48.128;11.602;2024-03-29T13:02:56;0.80;;;0.80;;
990;SDS011;484;48.128;11.602;2024-03-29T13:05:41;0.73;;;0.73;;
990;SDS011;484;48.128;11.602;2024-03-29T13:08:28;0.70;;;0.70;;
990;SDS011;484;48.128;11.602;2024-03-29T13:11:15;1.17;;;1.08;;
990;SDS011;484;48.128;11.602;2024-03-29T13:14:02;0.70;;;0.70;;
990;SDS011;484;48.128;11.602;2024-03-29T13:16:49;1.02;;;0.90;;
990;SDS011;484;48.128;11.602;2024-03-29T13:19:35;0.80;;;0.80;;
990;SDS011;484;48.128;11.602;2024-03-29T13:22:20;0.73;;;0.73;;
990;SDS011;484;48.128;11.602;2024-03-29T13:25:07;0.70;;;0.70;;
990;SDS011;484;48.128;11.602;2024-03-29T13:27:53;0.90;;;0.90;;
990;SDS011;484;48.128;11.602;2024-03-29T13:30:41;0.97;;;0.90;;
990;SDS011;484;48.128;11.602;2024-03-29T13:33:30;0.70;;;0.70;;
990;SDS011;484;48.128;11.602;2024-03-29T13:36:15;0.60;;;0.60;;
990;SDS011;484;48.128;11.602;2024-03-29T13:39:01;0.70;;;0.70;;
990;SDS011;484;48.128;11.602;2024-03-29T13:41:48;0.90;;;0.73;;
990;SDS011;484;48.128;11.602;2024-03-29T13:44:35;0.60;;;0.60;;
990;SDS011;484;48.128;11.602;2024-03-29T13:47:22;1.37;;;0.70;;
990;SDS011;484;48.128;11.602;2024-03-29T13:50:08;0.70;;;0.70;;
990;SDS011;484;48.128;11.602;2024-03-29T13:52:55;0.80;;;0.80;;
990;SDS011;484;48.128;11.602;2024-03-29T13:55:41;0.70;;;0.70;;
990;SDS011;484;48.128;11.602;2024-03-29T13:58:27;0.80;;;0.70;;
990;SDS011;484;48.128;11.602;2024-03-29T14:01:13;0.60;;;0.60;;
990;SDS011;484;48.128;11.602;2024-03-29T14:04:00;0.73;;;0.60;;
990;SDS011;484;48.128;11.602;2024-03-29T14:06:47;1.07;;;0.70;;
990;SDS011;484;48.128;11.602;2024-03-29T14:09:34;0.60;;;0.60;;
990;SDS011;484;48.128;11.602;2024-03-29T14:12:20;0.60;;;0.60;;
990;SDS011;484;48.128;11.602;2024-03-29T14:15:08;0.73;;;0.73;;
990;SDS011;484;48.128;11.602;2024-03-29T14:17:54;2.63;;;1.10;;
990;SDS011;484;48.128;11.602;2024-03-29T14:20:41;1.27;;;1.17;;
990;SDS011;484;48.128;11.602;2024-03-29T14:23:27;2.70;;;0.97;;
990;SDS011;484;48.128;11.602;2024-03-29T14:26:13;0.70;;;0.70;;
990;SDS011;484;48.128;11.602;2024-03-29T14:28:59;0.80;;;0.80;;
990;SDS011;484;48.128;11.602;2024-03-29T14:31:44;0.70;;;0.70;;
990;SDS011;484;48.128;11.602;2024-03-29T14:34:30;1.03;;;0.93;;
990;SDS011;484;48.128;11.602;2024-03-29T14:37:23;0.60;;;0.60;;
990;SDS011;484;48.128;11.602;2024-03-29T14:40:09;1.00;;;0.80;;
990;SDS011;484;48.128;11.602;2024-03-29T14:42:56;0.60;;;0.60;;
990;SDS011;484;48.128;11.602;2024-03-29T14:45:42;0.60;;;0.60;;
990;SDS011;484;48.128;11.602;2024-03-29T14:48:27;0.60;;;0.60;;
990;SDS011;484;48.128;11.602;2024-03-29T14:51:13;0.70;;;0.60;;
990;SDS011;484;48.128;11.602;2024-03-29T14:54:00;0.60;;;0.60;;
990;SDS011;484;48.128;11.602;2024-03-29T14:56:47;0.80;;;0.80;;
990;SDS011;484;48.128;11.602;2024-03-29T14:59:32;0.77;;;0.70;;
990;SDS011;484;48.128;11.602;2024-03-29T15:02:20;0.80;;;0.77;;
990;SDS011;484;48.128;11.602;2024-03-29T15:05:06;2.03;;;0.80;;
990;SDS011;484;48.128;11.602;2024-03-29T15:07:55;0.80;;;0.80;;
990;SDS011;484;48.128;11.602;2024-03-29T15:10:42;0.60;;;0.60;;
990;SDS011;484;48.128;11.602;2024-03-29T15:13:28;0.70;;;0.70;;
990;SDS011;484;48.128;11.602;2024-03-29T15:16:14;0.80;;;0.67;;
990;SDS011;484;48.128;11.602;2024-03-29T15:18:59;0.70;;;0.70;;
990;SDS011;484;48.128;11.602;2024-03-29T15:21:46;0.60;;;0.60;;
990;SDS011;484;48.128;11.602;2024-03-29T15:24:32;0.80;;;0.80;;
990;SDS011;484;48.128;11.602;2024-03-29T15:27:19;0.70;;;0.70;;
990;SDS011;484;48.128;11.602;2024-03-29T15:30:31;1.10;;;1.00;;
990;SDS011;484;48.128;11.602;2024-03-29T15:33:21;0.83;;;0.83;;
990;SDS011;484;48.128;11.602;2024-03-29T15:36:07;1.00;;;0.90;;
990;SDS011;484;48.128;11.602;2024-03-29T15:38:53;2.87;;;0.93;;
990;SDS011;484;48.128;11.602;2024-03-29T15:41:44;0.93;;;0.90;;
990;SDS011;484;48.128;11.602;2024-03-29T15:44:31;1.80;;;0.90;;
990;SDS011;484;48.128;11.602;2024-03-29T15:47:17;1.37;;;1.10;;
990;SDS011;484;48.128;11.602;2024-03-29T15:50:03;1.80;;;0.90;;
990;SDS011;484;48.128;11.602;2024-03-29T15:52:49;1.23;;;0.70;;
990;SDS011;484;48.128;11.602;2024-03-29T15:55:34;1.20;;;1.00;;
990;SDS011;484;48.128;11.602;2024-03-29T15:58:20;0.70;;;0.70;;
990;SDS011;484;48.128;11.602;2024-03-29T16:01:07;2.70;;;1.03;;
990;SDS011;484;48.128;11.602;2024-03-29T16:03:52;0.97;;;0.80;;
990;SDS011;484;48.128;11.602;2024-03-29T16:06:38;2.17;;;2.07;;
990;SDS011;484;48.128;11.602;2024-03-29T16:09:24;4.40;;;1.00;;
990;SDS011;484;48.128;11.602;2024-03-29T16:12:10;2.73;;;0.93;;
990;SDS011;484;48.128;11.602;2024-03-29T16:14:55;1.30;;;1.20;;
990;SDS011;484;48.128;11.602;2024-03-29T16:17:42;1.40;;;1.07;;
990;SDS011;484;48.128;11.602;2024-03-29T16:20:28;1.10;;;1.00;;
990;SDS011;484;48.128;11.602;2024-03-29T16:23:13;3.67;;;1.60;;
990;SDS011;484;48.128;11.602;2024-03-29T16:25:59;10.03;;;1.80;;
990;SDS011;484;48.128;11.602;2024-03-29T16:28:44;3.67;;;1.40;;
990;SDS011;484;48.128;11.602;2024-03-29T16:31:29;2.60;;;2.40;;
990;SDS011;484;48.128;11.602;2024-03-29T16:34:15;4.23;;;1.53;;
990;SDS011;484;48.128;11.602;2024-03-29T16:37:01;7.93;;;3.20;;
990;SDS011;484;48.128;11.602;2024-03-29T16:39:45;9.10;;;2.40;;
990;SDS011;484;48.128;11.602;2024-03-29T16:42:31;8.30;;;2.40;;
990;SDS011;484;48.128;11.602;2024-03-29T16:45:16;7.20;;;2.20;;
990;SDS011;484;48.128;11.602;2024-03-29T16:48:02;10.13;;;2.33;;
990;SDS011;484;48.128;11.602;2024-03-29T16:50:48;21.53;;;3.43;;
990;SDS011;484;48.128;11.602;2024-03-29T16:53:34;11.10;;;3.23;;
990;SDS011;484;48.128;11.602;2024-03-29T16:56:18;15.33;;;3.50;;
990;SDS011;484;48.128;11.602;2024-03-29T16:59:04;14.10;;;3.13;;
990;SDS011;484;48.128;11.602;2024-03-29T17:01:50;10.90;;;3.47;;
990;SDS011;484;48.128;11.602;2024-03-29T17:04:36;14.07;;;3.30;;
990;SDS011;484;48.128;11.602;2024-03-29T17:07:22;14.17;;;3.20;;
990;SDS011;484;48.128;11.602;2024-03-29T17:10:07;8.43;;;3.70;;
990;SDS011;484;48.128;11.602;2024-03-29T17:12:52;16.00;;;3.23;;
990;SDS011;484;48.128;11.602;2024-03-29T17:15:38;12.87;;;3.57;;
990;SDS011;484;48.128;11.602;2024-03-29T17:18:22;16.43;;;4.70;;
990;SDS011;484;48.128;11.602;2024-03-29T17:21:07;17.83;;;3.10;;
990;SDS011;484;48.128;11.602;2024-03-29T17:23:53;10.30;;;3.13;;
990;SDS011;484;48.128;11.602;2024-03-29T17:26:39;12.10;;;2.83;;
990;SDS011;484;48.128;11.602;2024-03-29T17:29:24;14.77;;;3.77;;